Time;durP1;ratioP1;P1;durP2;ratioP2;P2;SDS_P1;SDS_P2;PMS_P1;PMS_P2;Temp;Humidity;BMP_temperature;BMP_pressure;BME280_temperature;BME280_humidity;BME280_pressure;Samples;Min_cycle;Max_cycle;Signal;HPM_P1;HPM_P2
2021/11/08 00:02:24;;;;;;;7.63;5.53;;;;;;;;;;5012487;28;20196;-85
2021/11/08 00:05:10;;;;;;;8.47;5.20;;;;;;;;;;5012242;28;20192;-85
2021/11/08 00:08:00;;;;;;;10.53;6.30;;;;;;;;;;5012222;28;20326;-84
2021/11/08 00:10:46;;;;;;;7.03;5.57;;;;;;;;;;5012184;28;20192;-85
2021/11/08 00:13:33;;;;;;;9.23;6.23;;;;;;;;;;5012559;28;20191;-84
2021/11/08 00:16:27;;;;;;;6.97;5.53;;;;;;;;;;5012935;28;20266;-85
2021/11/08 00:19:34;;;;;;;6.37;5.77;;;;;;;;;;5012653;28;20267;-84
2021/11/08 00:22:21;;;;;;;7.33;5.63;;;;;;;;;;5012563;28;20192;-85
2021/11/08 00:25:07;;;;;;;8.20;6.13;;;;;;;;;;5012650;28;20257;-85
2021/11/08 00:27:52;;;;;;;6.47;5.87;;;;;;;;;;5012286;28;20553;-83
2021/11/08 00:30:38;;;;;;;8.30;6.13;;;;;;;;;;5012324;28;20554;-83
2021/11/08 00:33:24;;;;;;;9.17;5.60;;;;;;;;;;5011819;28;20560;-83
2021/11/08 00:36:09;;;;;;;8.80;5.83;;;;;;;;;;5011903;28;20207;-83
2021/11/08 00:38:56;;;;;;;6.60;5.53;;;;;;;;;;5012120;28;20316;-83
2021/11/08 00:41:41;;;;;;;7.10;5.57;;;;;;;;;;5012024;28;20703;-83
2021/11/08 00:44:27;;;;;;;8.93;5.70;;;;;;;;;;5011592;28;20239;-83
2021/11/08 00:47:13;;;;;;;6.27;5.17;;;;;;;;;;5011880;28;20184;-84
2021/11/08 00:49:59;;;;;;;5.60;5.10;;;;;;;;;;5011723;28;20223;-83
2021/11/08 00:52:45;;;;;;;5.67;5.17;;;;;;;;;;5025009;28;20242;-83
2021/11/08 00:55:32;;;;;;;9.23;5.00;;;;;;;;;;5031260;28;20206;-83
2021/11/08 00:58:23;;;;;;;10.33;5.30;;;;;;;;;;5031082;28;20659;-83
2021/11/08 01:01:09;;;;;;;6.13;5.40;;;;;;;;;;5031983;28;20291;-83
2021/11/08 01:03:54;;;;;;;5.43;4.47;;;;;;;;;;5031473;28;20532;-83
2021/11/08 01:06:39;;;;;;;6.10;5.50;;;;;;;;;;5031552;28;20187;-83
2021/11/08 01:09:25;;;;;;;7.63;5.50;;;;;;;;;;5030869;28;20266;-83
2021/11/08 01:12:12;;;;;;;5.40;4.90;;;;;;;;;;5031551;28;20266;-83
2021/11/08 01:14:56;;;;;;;5.73;5.13;;;;;;;;;;5031403;28;20315;-83
2021/11/08 01:17:42;;;;;;;8.00;5.73;;;;;;;;;;5031258;28;20318;-82
2021/11/08 01:20:32;;;;;;;13.13;6.03;;;;;;;;;;5031425;28;20191;-82
2021/11/08 01:23:19;;;;;;;8.20;6.27;;;;;;;;;;5031050;28;20195;-84
2021/11/08 01:26:07;;;;;;;9.23;7.10;;;;;;;;;;5031319;28;20728;-84
2021/11/08 01:28:53;;;;;;;11.83;5.80;;;;;;;;;;5031407;28;20199;-84
2021/11/08 01:31:38;;;;;;;6.27;5.53;;;;;;;;;;5031384;28;20195;-83
2021/11/08 01:34:25;;;;;;;7.83;5.60;;;;;;;;;;5031219;28;20198;-84
2021/11/08 01:37:11;;;;;;;7.60;5.20;;;;;;;;;;5031523;28;20211;-84
2021/11/08 01:39:57;;;;;;;12.43;4.87;;;;;;;;;;5031402;28;20199;-84
2021/11/08 01:42:42;;;;;;;7.20;5.07;;;;;;;;;;5031135;28;20588;-83
2021/11/08 01:45:29;;;;;;;7.10;4.83;;;;;;;;;;5031371;28;20261;-84
2021/11/08 01:48:14;;;;;;;6.83;4.83;;;;;;;;;;5031049;28;20228;-84
2021/11/08 01:51:00;;;;;;;7.40;5.50;;;;;;;;;;5031405;28;20251;-83
2021/11/08 01:53:46;;;;;;;5.90;5.30;;;;;;;;;;5011577;28;20376;-84
2021/11/08 01:56:31;;;;;;;6.77;5.30;;;;;;;;;;5011235;28;20212;-84
2021/11/08 01:59:16;;;;;;;10.80;6.07;;;;;;;;;;5011755;28;20675;-84
2021/11/08 02:02:03;;;;;;;12.73;6.33;;;;;;;;;;5015136;28;20196;-83
2021/11/08 02:04:48;;;;;;;8.77;6.00;;;;;;;;;;5014812;28;20196;-84
2021/11/08 02:07:33;;;;;;;10.97;6.00;;;;;;;;;;5014842;28;20312;-83
2021/11/08 02:10:20;;;;;;;6.37;5.20;;;;;;;;;;5014899;28;20251;-84
2021/11/08 02:13:05;;;;;;;8.80;5.50;;;;;;;;;;5014276;28;20192;-84
2021/11/08 02:15:51;;;;;;;7.87;5.33;;;;;;;;;;5014720;28;20548;-84
2021/11/08 02:18:39;;;;;;;9.50;5.17;;;;;;;;;;5014340;28;20695;-84
2021/11/08 02:21:26;;;;;;;7.17;5.30;;;;;;;;;;5014764;28;20587;-84
2021/11/08 02:24:16;;;;;;;7.37;5.10;;;;;;;;;;5014366;28;20188;-84
2021/11/08 02:27:01;;;;;;;8.07;4.87;;;;;;;;;;5014285;28;20232;-84
2021/11/08 02:29:47;;;;;;;7.53;4.60;;;;;;;;;;5014082;28;20661;-84
2021/11/08 02:32:33;;;;;;;7.10;4.23;;;;;;;;;;5014620;28;20192;-83
2021/11/08 02:35:19;;;;;;;7.23;4.80;;;;;;;;;;5014353;28;20184;-84
2021/11/08 02:38:07;;;;;;;7.60;4.77;;;;;;;;;;5014179;28;20215;-83
2021/11/08 02:40:54;;;;;;;5.00;4.50;;;;;;;;;;5014246;28;20200;-84
2021/11/08 02:43:40;;;;;;;6.47;4.37;;;;;;;;;;5014261;28;20712;-84
2021/11/08 02:46:27;;;;;;;6.57;4.87;;;;;;;;;;5014056;28;20192;-83
2021/11/08 02:49:13;;;;;;;6.80;4.60;;;;;;;;;;5014020;28;20263;-83
2021/11/08 02:52:02;;;;;;;6.50;4.93;;;;;;;;;;5020923;28;20234;-84
2021/11/08 02:54:51;;;;;;;8.27;4.93;;;;;;;;;;5033894;28;20196;-84
2021/11/08 02:57:37;;;;;;;6.27;4.73;;;;;;;;;;5032736;28;20293;-84
2021/11/08 03:00:23;;;;;;;6.30;5.70;;;;;;;;;;5034006;28;20277;-83
2021/11/08 03:03:08;;;;;;;9.70;5.03;;;;;;;;;;5033476;28;20547;-83
2021/11/08 03:05:59;;;;;;;8.00;4.87;;;;;;;;;;5033462;28;20187;-83
2021/11/08 03:08:44;;;;;;;7.53;4.60;;;;;;;;;;5032959;28;20268;-84
2021/11/08 03:11:30;;;;;;;9.87;4.90;;;;;;;;;;5033569;28;20553;-83
2021/11/08 03:14:17;;;;;;;8.17;5.10;;;;;;;;;;5033496;28;20195;-84
2021/11/08 03:17:04;;;;;;;8.20;5.07;;;;;;;;;;5033278;28;20250;-84
2021/11/08 03:19:49;;;;;;;10.90;4.67;;;;;;;;;;5033069;28;20263;-84
2021/11/08 03:22:34;;;;;;;9.57;5.10;;;;;;;;;;5033412;28;20278;-84
2021/11/08 03:25:27;;;;;;;7.20;4.87;;;;;;;;;;5033232;28;20191;-84
2021/11/08 03:28:13;;;;;;;5.53;4.27;;;;;;;;;;5032811;28;20183;-83
2021/11/08 03:30:59;;;;;;;7.93;5.27;;;;;;;;;;5033194;28;20207;-84
2021/11/08 03:33:45;;;;;;;7.93;5.40;;;;;;;;;;5032638;28;20273;-84
2021/11/08 03:36:31;;;;;;;8.10;5.17;;;;;;;;;;5032914;28;20661;-84
2021/11/08 03:39:16;;;;;;;10.23;5.40;;;;;;;;;;5032995;28;20239;-84
2021/11/08 03:42:01;;;;;;;6.50;5.63;;;;;;;;;;5032618;28;20254;-84
2021/11/08 03:44:48;;;;;;;7.87;5.60;;;;;;;;;;5032728;28;20230;-84
2021/11/08 03:47:33;;;;;;;8.97;5.43;;;;;;;;;;5032883;28;20180;-84
2021/11/08 03:50:19;;;;;;;6.10;5.33;;;;;;;;;;5032869;28;20300;-84
2021/11/08 03:53:04;;;;;;;5.10;4.50;;;;;;;;;;5032304;28;20230;-84
2021/11/08 03:55:50;;;;;;;6.63;5.13;;;;;;;;;;5032499;28;20242;-84
2021/11/08 03:58:36;;;;;;;9.43;5.13;;;;;;;;;;5032495;28;20315;-84
2021/11/08 04:01:22;;;;;;;7.90;5.37;;;;;;;;;;5032727;28;20663;-84
2021/11/08 04:04:07;;;;;;;8.23;5.30;;;;;;;;;;5032482;28;20740;-84
2021/11/08 04:06:52;;;;;;;7.33;5.07;;;;;;;;;;5032432;28;20759;-84
2021/11/08 04:09:38;;;;;;;5.83;4.90;;;;;;;;;;5032054;28;20190;-84
2021/11/08 04:12:24;;;;;;;7.70;5.50;;;;;;;;;;5032339;28;20195;-84
2021/11/08 04:15:10;;;;;;;9.07;4.90;;;;;;;;;;5032230;28;20186;-84
2021/11/08 04:17:56;;;;;;;9.10;5.30;;;;;;;;;;5031786;28;20212;-84
2021/11/08 04:20:43;;;;;;;9.33;5.97;;;;;;;;;;5032073;28;20184;-84
2021/11/08 04:23:28;;;;;;;9.23;5.30;;;;;;;;;;5031571;28;20191;-84
2021/11/08 04:26:18;;;;;;;9.17;5.23;;;;;;;;;;5032181;28;20671;-84
2021/11/08 04:29:04;;;;;;;9.23;5.37;;;;;;;;;;5031750;28;20187;-84
2021/11/08 04:31:50;;;;;;;9.33;6.03;;;;;;;;;;5031763;28;20206;-85
2021/11/08 04:34:43;;;;;;;5.80;4.63;;;;;;;;;;5031759;28;20183;-84
2021/11/08 04:37:51;;;;;;;8.13;4.97;;;;;;;;;;5031906;28;20211;-84
2021/11/08 04:40:42;;;;;;;5.93;5.00;;;;;;;;;;5031985;28;20196;-84
2021/11/08 04:43:38;;;;;;;9.53;5.63;;;;;;;;;;5031075;28;20203;-83
2021/11/08 04:46:48;;;;;;;7.43;4.70;;;;;;;;;;5031667;28;20194;-83
2021/11/08 04:49:38;;;;;;;6.87;4.83;;;;;;;;;;5031747;28;20254;-84
2021/11/08 04:52:38;;;;;;;6.53;4.90;;;;;;;;;;5031656;28;20235;-83
2021/11/08 04:55:31;;;;;;;7.30;4.90;;;;;;;;;;5031108;28;20250;-83
2021/11/08 05:22:54;;;;;;;5.20;4.33;;;;;;;;;;5031148;28;20209;-83
2021/11/08 05:29:52;;;;;;;6.13;5.10;;;;;;;;;;5031441;28;20188;-85
2021/11/08 05:31:50;;;;;;;10.10;5.60;;;;;;;;;;5030960;28;20211;-83
2021/11/08 05:34:35;;;;;;;6.50;4.80;;;;;;;;;;5031827;28;20186;-84
2021/11/08 05:37:22;;;;;;;5.63;5.03;;;;;;;;;;5035814;28;20184;-87
2021/11/08 05:40:10;;;;;;;9.80;5.17;;;;;;;;;;5034739;28;20267;-83
2021/11/08 05:42:57;;;;;;;10.33;5.20;;;;;;;;;;5034939;28;20211;-84
2021/11/08 05:45:42;;;;;;;10.87;5.23;;;;;;;;;;5035062;28;20195;-84
2021/11/08 05:48:27;;;;;;;5.03;4.50;;;;;;;;;;5034710;28;20184;-83
2021/11/08 05:51:12;;;;;;;5.33;4.83;;;;;;;;;;5034644;28;20293;-84
2021/11/08 05:53:57;;;;;;;9.53;5.10;;;;;;;;;;5034504;28;20191;-84
2021/11/08 05:56:55;;;;;;;6.37;4.60;;;;;;;;;;5034949;28;20801;-84
2021/11/08 05:59:58;;;;;;;8.07;4.87;;;;;;;;;;5034763;28;20354;-82
2021/11/08 06:51:47;;;;;;;9.70;7.40;;;;;;;;;;5005996;28;20342;-83
2021/11/08 06:54:32;;;;;;;10.13;6.50;;;;;;;;;;5033721;28;20192;-83
2021/11/08 06:57:19;;;;;;;6.33;5.73;;;;;;;;;;5033887;28;20310;-82
2021/11/08 07:00:04;;;;;;;9.30;5.90;;;;;;;;;;5034014;28;20227;-83
2021/11/08 07:02:51;;;;;;;9.20;6.13;;;;;;;;;;5033982;28;20239;-83
2021/11/08 07:05:36;;;;;;;12.07;7.10;;;;;;;;;;5033720;28;20191;-82
2021/11/08 07:08:21;;;;;;;9.27;6.33;;;;;;;;;;5033700;28;20268;-83
2021/11/08 07:11:06;;;;;;;8.90;6.40;;;;;;;;;;5033682;28;20187;-82
2021/11/08 07:13:51;;;;;;;12.20;6.23;;;;;;;;;;5033425;28;20646;-82
2021/11/08 07:16:38;;;;;;;13.17;6.93;;;;;;;;;;5033463;28;20192;-81
2021/11/08 07:19:25;;;;;;;11.73;7.07;;;;;;;;;;5033474;28;20341;-82
2021/11/08 07:22:10;;;;;;;10.00;6.97;;;;;;;;;;5033540;28;20317;-83
2021/11/08 07:24:55;;;;;;;8.30;5.80;;;;;;;;;;5033337;28;20677;-82
2021/11/08 07:27:40;;;;;;;10.23;6.33;;;;;;;;;;5033203;28;20187;-83
2021/11/08 07:30:25;;;;;;;12.50;7.70;;;;;;;;;;5033945;28;20195;-83
2021/11/08 07:33:11;;;;;;;21.43;14.70;;;;;;;;;;5033064;28;20191;-90
2021/11/08 07:35:58;;;;;;;20.83;13.63;;;;;;;;;;5033386;28;20196;-82
2021/11/08 07:38:43;;;;;;;16.00;11.10;;;;;;;;;;5032926;28;20571;-80
2021/11/08 07:41:28;;;;;;;12.47;9.00;;;;;;;;;;5033182;28;20187;-84
2021/11/08 07:44:13;;;;;;;13.17;7.27;;;;;;;;;;5033016;28;20192;-85
2021/11/08 07:46:58;;;;;;;10.67;6.33;;;;;;;;;;5033089;28;20270;-83
2021/11/08 07:49:43;;;;;;;9.20;7.23;;;;;;;;;;5032620;28;20179;-83
2021/11/08 07:52:30;;;;;;;11.90;7.47;;;;;;;;;;5032784;28;20234;-84
2021/11/08 07:55:15;;;;;;;13.57;7.50;;;;;;;;;;5032798;28;20561;-83
2021/11/08 07:58:01;;;;;;;15.00;7.90;;;;;;;;;;5032049;28;20192;-83
2021/11/08 08:00:46;;;;;;;14.70;7.10;;;;;;;;;;5033376;28;20274;-83
2021/11/08 08:03:31;;;;;;;11.80;6.70;;;;;;;;;;5033004;28;20187;-83
2021/11/08 08:06:17;;;;;;;13.77;6.50;;;;;;;;;;5032982;28;20187;-84
2021/11/08 08:09:04;;;;;;;11.23;6.33;;;;;;;;;;5032470;28;20551;-83
2021/11/08 08:11:50;;;;;;;11.27;6.73;;;;;;;;;;5032758;28;20230;-83
2021/11/08 08:14:35;;;;;;;14.63;6.77;;;;;;;;;;5032622;28;20255;-83
2021/11/08 08:17:20;;;;;;;9.80;6.53;;;;;;;;;;5032151;28;20195;-83
2021/11/08 08:20:06;;;;;;;13.13;7.67;;;;;;;;;;5032397;28;20669;-84
2021/11/08 08:22:51;;;;;;;15.53;8.47;;;;;;;;;;5031956;28;20187;-84
2021/11/08 08:25:38;;;;;;;14.17;9.37;;;;;;;;;;5032495;28;20191;-84
2021/11/08 08:28:23;;;;;;;29.87;14.37;;;;;;;;;;5031863;28;20215;-83
2021/11/08 08:31:08;;;;;;;47.03;25.33;;;;;;;;;;5032387;28;20187;-83
2021/11/08 08:33:53;;;;;;;13.90;9.20;;;;;;;;;;5031984;28;20218;-84
2021/11/08 08:36:39;;;;;;;12.77;7.10;;;;;;;;;;5031853;28;20176;-84
2021/11/08 08:39:24;;;;;;;12.03;7.10;;;;;;;;;;5031586;28;20211;-84
2021/11/08 08:42:11;;;;;;;10.93;6.90;;;;;;;;;;5032004;28;20184;-84
2021/11/08 08:44:57;;;;;;;16.93;6.97;;;;;;;;;;5032069;28;20246;-84
2021/11/08 08:47:42;;;;;;;15.63;7.30;;;;;;;;;;5031710;28;20270;-84
2021/11/08 08:50:28;;;;;;;12.03;7.07;;;;;;;;;;5031674;28;20230;-83
2021/11/08 08:53:14;;;;;;;10.13;6.47;;;;;;;;;;5032039;28;20628;-84
2021/11/08 08:56:00;;;;;;;13.17;7.10;;;;;;;;;;5032093;28;20283;-85
2021/11/08 08:58:46;;;;;;;12.17;6.80;;;;;;;;;;5031619;28;20187;-84
2021/11/08 09:01:31;;;;;;;15.43;6.57;;;;;;;;;;5032155;28;20199;-85
2021/11/08 09:04:17;;;;;;;14.63;7.47;;;;;;;;;;5031628;28;20187;-83
2021/11/08 09:07:02;;;;;;;9.70;6.00;;;;;;;;;;5031259;28;20196;-83
2021/11/08 09:09:47;;;;;;;12.97;6.67;;;;;;;;;;5035015;28;20318;-83
2021/11/08 09:12:32;;;;;;;13.03;6.73;;;;;;;;;;5035371;28;20203;-85
2021/11/08 09:15:19;;;;;;;10.07;6.70;;;;;;;;;;5035942;28;20191;-85
2021/11/08 09:18:05;;;;;;;18.67;7.13;;;;;;;;;;5035550;28;20202;-83
2021/11/08 09:20:50;;;;;;;10.97;7.00;;;;;;;;;;5036097;28;20215;-85
2021/11/08 09:23:35;;;;;;;11.00;6.70;;;;;;;;;;5035637;28;20714;-85
2021/11/08 09:26:20;;;;;;;11.40;6.47;;;;;;;;;;5036051;28;20365;-83
2021/11/08 09:29:06;;;;;;;12.63;6.40;;;;;;;;;;5035445;28;20191;-84
2021/11/08 09:31:53;;;;;;;15.07;7.20;;;;;;;;;;5035696;28;20186;-85
2021/11/08 09:34:44;;;;;;;11.73;7.17;;;;;;;;;;5035596;28;20229;-85
2021/11/08 09:37:32;;;;;;;10.47;7.03;;;;;;;;;;5035514;28;20196;-84
2021/11/08 09:40:19;;;;;;;10.97;7.23;;;;;;;;;;5035448;28;20608;-84
2021/11/08 09:43:08;;;;;;;8.03;6.97;;;;;;;;;;5035370;28;20203;-83
2021/11/08 09:45:53;;;;;;;13.23;7.10;;;;;;;;;;5035192;28;20216;-84
2021/11/08 09:48:40;;;;;;;11.67;6.83;;;;;;;;;;5035251;28;20183;-84
2021/11/08 09:51:26;;;;;;;14.07;6.60;;;;;;;;;;5034806;28;20718;-84
2021/11/08 09:54:12;;;;;;;13.13;7.50;;;;;;;;;;5035144;28;20244;-84
2021/11/08 09:56:58;;;;;;;12.80;6.70;;;;;;;;;;5035049;28;20664;-84
2021/11/08 09:59:44;;;;;;;10.87;6.60;;;;;;;;;;5035054;28;20716;-84
2021/11/08 10:02:29;;;;;;;12.73;6.40;;;;;;;;;;5034958;28;20196;-84
2021/11/08 10:05:15;;;;;;;8.67;5.90;;;;;;;;;;5034826;28;20187;-84
2021/11/08 10:08:01;;;;;;;11.37;6.67;;;;;;;;;;5034505;28;20299;-84
2021/11/08 10:10:46;;;;;;;8.23;6.13;;;;;;;;;;5034649;28;20751;-83
2021/11/08 10:13:32;;;;;;;9.43;6.00;;;;;;;;;;5034784;28;20190;-83
2021/11/08 10:16:19;;;;;;;10.13;7.07;;;;;;;;;;5019176;28;20671;-84
2021/11/08 10:19:06;;;;;;;16.90;7.47;;;;;;;;;;5034394;28;20550;-84
2021/11/08 10:21:53;;;;;;;12.57;7.40;;;;;;;;;;5033594;28;20751;-83
2021/11/08 10:24:39;;;;;;;14.23;7.33;;;;;;;;;;5034601;28;20266;-84
2021/11/08 10:27:24;;;;;;;11.20;7.73;;;;;;;;;;5034304;28;20696;-84
2021/11/08 10:30:20;;;;;;;13.00;7.83;;;;;;;;;;5034619;28;20178;-84
2021/11/08 10:33:09;;;;;;;14.47;7.43;;;;;;;;;;5034358;28;20196;-84
2021/11/08 10:35:56;;;;;;;11.33;6.83;;;;;;;;;;5034082;28;20555;-84
2021/11/08 10:38:43;;;;;;;12.53;6.57;;;;;;;;;;5034036;28;20277;-84
2021/11/08 10:41:30;;;;;;;11.20;6.07;;;;;;;;;;5033787;28;20215;-84
2021/11/08 10:44:17;;;;;;;11.17;5.80;;;;;;;;;;5033836;28;20203;-84
2021/11/08 10:47:04;;;;;;;11.83;5.70;;;;;;;;;;5033951;28;20186;-84
2021/11/08 10:49:49;;;;;;;12.27;6.03;;;;;;;;;;5034182;28;20306;-84
2021/11/08 10:52:36;;;;;;;11.10;6.27;;;;;;;;;;5033249;28;20650;-83
2021/11/08 10:55:29;;;;;;;12.53;6.20;;;;;;;;;;5033957;28;20192;-83
2021/11/08 10:58:15;;;;;;;10.53;6.10;;;;;;;;;;5033271;28;20203;-84
2021/11/08 11:01:02;;;;;;;12.83;6.00;;;;;;;;;;5033626;28;20771;-84
2021/11/08 11:03:48;;;;;;;8.53;5.33;;;;;;;;;;5033738;28;20195;-83
2021/11/08 11:06:35;;;;;;;6.97;4.70;;;;;;;;;;5033358;28;20591;-83
2021/11/08 11:09:22;;;;;;;12.43;5.60;;;;;;;;;;5033608;28;20191;-84
2021/11/08 11:12:11;;;;;;;13.63;5.70;;;;;;;;;;5033465;28;20691;-83
2021/11/08 11:14:57;;;;;;;10.47;5.83;;;;;;;;;;5033436;28;20663;-85
2021/11/08 11:17:44;;;;;;;9.57;5.67;;;;;;;;;;5033392;28;20191;-84
2021/11/08 11:20:32;;;;;;;10.70;6.20;;;;;;;;;;5033415;28;20220;-84
2021/11/08 11:23:21;;;;;;;9.33;5.37;;;;;;;;;;5033069;28;20191;-84
2021/11/08 11:26:09;;;;;;;13.03;6.37;;;;;;;;;;5033528;28;20548;-85
2021/11/08 11:28:55;;;;;;;12.00;5.83;;;;;;;;;;5033419;28;20246;-84
2021/11/08 11:31:41;;;;;;;11.03;5.20;;;;;;;;;;5032107;28;20187;-83
2021/11/08 11:34:27;;;;;;;12.27;5.53;;;;;;;;;;5033286;28;20222;-83
2021/11/08 11:37:13;;;;;;;8.50;4.70;;;;;;;;;;5032887;28;20255;-84
2021/11/08 11:40:06;;;;;;;16.70;5.20;;;;;;;;;;5032926;28;20211;-83
2021/11/08 11:42:54;;;;;;;15.57;5.17;;;;;;;;;;5032863;28;20203;-84
2021/11/08 11:45:46;;;;;;;12.97;4.40;;;;;;;;;;5032740;28;20250;-85
2021/11/08 11:48:31;;;;;;;9.70;4.00;;;;;;;;;;5032555;28;20183;-84
2021/11/08 11:51:18;;;;;;;12.40;4.17;;;;;;;;;;5032221;28;20219;-84
2021/11/08 11:54:03;;;;;;;10.20;4.80;;;;;;;;;;5032949;28;20207;-84
2021/11/08 11:56:49;;;;;;;12.53;4.93;;;;;;;;;;5032369;28;20191;-84
2021/11/08 11:59:35;;;;;;;14.83;4.73;;;;;;;;;;5032800;28;20318;-83
2021/11/08 12:02:22;;;;;;;18.87;4.73;;;;;;;;;;5032658;28;20267;-82
2021/11/08 12:05:08;;;;;;;14.57;5.20;;;;;;;;;;5032779;28;20190;-84
2021/11/08 12:07:54;;;;;;;10.63;4.10;;;;;;;;;;5032138;28;20191;-84
2021/11/08 12:10:46;;;;;;;12.43;4.63;;;;;;;;;;5032643;28;20675;-84
2021/11/08 12:13:34;;;;;;;10.70;4.03;;;;;;;;;;5032344;28;20227;-84
2021/11/08 12:16:20;;;;;;;10.20;3.73;;;;;;;;;;5032297;28;20187;-83
2021/11/08 12:19:17;;;;;;;12.10;4.53;;;;;;;;;;5032425;28;20227;-85
2021/11/08 12:22:11;;;;;;;10.23;4.00;;;;;;;;;;5031924;28;20220;-84
2021/11/08 12:24:57;;;;;;;11.13;4.23;;;;;;;;;;5032309;28;20671;-85
2021/11/08 12:27:43;;;;;;;10.93;4.17;;;;;;;;;;5032413;28;20556;-85
2021/11/08 12:30:29;;;;;;;12.40;4.30;;;;;;;;;;5032091;28;20219;-84
2021/11/08 12:33:35;;;;;;;12.23;4.27;;;;;;;;;;5032237;28;20323;-83
2021/11/08 12:36:23;;;;;;;14.10;4.70;;;;;;;;;;5031921;28;20690;-84
2021/11/08 12:39:09;;;;;;;7.67;3.77;;;;;;;;;;5032148;28;20203;-82
2021/11/08 12:42:00;;;;;;;8.00;3.77;;;;;;;;;;5031874;28;20362;-82
2021/11/08 12:44:48;;;;;;;13.50;3.67;;;;;;;;;;5031874;28;20246;-82
2021/11/08 12:47:33;;;;;;;13.67;4.13;;;;;;;;;;5032030;28;20755;-81
2021/11/08 12:50:18;;;;;;;13.87;4.47;;;;;;;;;;5031642;28;20219;-81
2021/11/08 12:53:04;;;;;;;11.33;3.60;;;;;;;;;;5031534;28;20254;-82
2021/11/08 12:55:51;;;;;;;8.13;3.33;;;;;;;;;;5031989;28;20371;-82
2021/11/08 12:58:38;;;;;;;14.23;3.97;;;;;;;;;;5031890;28;20231;-82
2021/11/08 13:01:25;;;;;;;13.33;4.40;;;;;;;;;;5031341;28;20218;-81
2021/11/08 13:04:13;;;;;;;11.03;3.93;;;;;;;;;;5031598;28;20211;-83
2021/11/08 13:07:06;;;;;;;10.30;3.93;;;;;;;;;;5031765;28;20195;-83
2021/11/08 13:09:53;;;;;;;14.20;3.53;;;;;;;;;;5031544;28;20183;-83
2021/11/08 13:12:41;;;;;;;14.10;3.93;;;;;;;;;;5031500;28;20183;-83
2021/11/08 13:15:28;;;;;;;12.57;3.60;;;;;;;;;;5031366;28;20195;-82
2021/11/08 13:18:13;;;;;;;15.40;4.37;;;;;;;;;;5031658;28;20694;-83
2021/11/08 13:20:58;;;;;;;9.70;4.10;;;;;;;;;;5031516;28;20346;-82
2021/11/08 13:23:43;;;;;;;10.47;3.53;;;;;;;;;;5031572;28;20199;-81
2021/11/08 13:26:30;;;;;;;11.47;3.77;;;;;;;;;;5031222;28;20192;-83
2021/11/08 13:29:16;;;;;;;11.30;3.47;;;;;;;;;;5031620;28;20331;-82
2021/11/08 13:32:07;;;;;;;9.57;3.40;;;;;;;;;;5031066;28;20262;-83
2021/11/08 13:34:53;;;;;;;9.93;3.43;;;;;;;;;;5031528;28;20222;-83
2021/11/08 13:37:38;;;;;;;8.37;3.10;;;;;;;;;;5031188;28;20211;-83
2021/11/08 13:40:24;;;;;;;9.00;3.33;;;;;;;;;;5030970;28;20184;-83
2021/11/08 13:43:11;;;;;;;12.87;3.37;;;;;;;;;;5031379;28;20255;-82
2021/11/08 13:45:58;;;;;;;9.13;3.43;;;;;;;;;;5031229;28;20609;-83
2021/11/08 13:48:45;;;;;;;11.53;3.63;;;;;;;;;;5031838;28;20251;-81
2021/11/08 13:51:31;;;;;;;8.53;3.50;;;;;;;;;;5030637;28;20355;-82
2021/11/08 13:54:23;;;;;;;7.90;2.80;;;;;;;;;;5031387;28;20199;-83
2021/11/08 13:57:11;;;;;;;6.37;3.07;;;;;;;;;;5034884;28;20230;-82
2021/11/08 13:59:57;;;;;;;6.87;3.00;;;;;;;;;;5035337;28;20656;-83
2021/11/08 14:02:43;;;;;;;8.83;2.93;;;;;;;;;;5035704;28;20564;-84
2021/11/08 14:05:28;;;;;;;8.63;3.53;;;;;;;;;;5034754;28;20187;-84
2021/11/08 14:08:13;;;;;;;7.43;3.10;;;;;;;;;;5035080;28;20284;-83
2021/11/08 14:10:59;;;;;;;9.07;3.93;;;;;;;;;;5034765;28;20191;-84
2021/11/08 14:13:44;;;;;;;10.40;3.30;;;;;;;;;;5034957;28;20561;-82
2021/11/08 14:16:30;;;;;;;6.27;2.97;;;;;;;;;;5034467;28;20187;-83
2021/11/08 14:19:16;;;;;;;8.37;3.30;;;;;;;;;;5034705;28;20192;-85
2021/11/08 14:22:01;;;;;;;8.20;3.20;;;;;;;;;;5034639;28;20212;-84
2021/11/08 14:24:47;;;;;;;8.50;3.93;;;;;;;;;;5034751;28;20192;-84
2021/11/08 14:27:34;;;;;;;7.07;3.77;;;;;;;;;;5034362;28;20735;-85
2021/11/08 14:30:20;;;;;;;14.80;4.70;;;;;;;;;;5034763;28;20187;-85
2021/11/08 14:33:07;;;;;;;9.37;4.10;;;;;;;;;;5034754;28;20191;-86
2021/11/08 14:35:52;;;;;;;10.07;3.73;;;;;;;;;;5034883;28;20234;-86
2021/11/08 14:38:44;;;;;;;10.43;4.30;;;;;;;;;;5034118;28;20278;-86
2021/11/08 14:41:33;;;;;;;14.77;4.40;;;;;;;;;;5034326;28;20219;-86
2021/11/08 14:44:19;;;;;;;33.43;6.00;;;;;;;;;;5034209;28;20255;-86
2021/11/08 14:47:14;;;;;;;11.17;4.13;;;;;;;;;;5033871;28;20195;-86
2021/11/08 14:50:01;;;;;;;10.43;4.23;;;;;;;;;;5034102;28;20313;-85
2021/11/08 14:52:48;;;;;;;7.30;3.63;;;;;;;;;;5033772;28;20239;-84
2021/11/08 14:55:35;;;;;;;37.77;4.97;;;;;;;;;;5033814;28;20239;-85
2021/11/08 14:58:21;;;;;;;11.03;3.27;;;;;;;;;;5033823;28;20662;-84
2021/11/08 15:01:06;;;;;;;17.67;4.10;;;;;;;;;;5034411;28;20211;-84
2021/11/08 15:03:59;;;;;;;12.13;3.53;;;;;;;;;;5033947;28;20188;-85
2021/11/08 15:06:53;;;;;;;7.27;3.07;;;;;;;;;;5033457;28;20270;-85
2021/11/08 15:09:40;;;;;;;10.50;3.93;;;;;;;;;;5034455;28;20184;-87
2021/11/08 15:12:26;;;;;;;13.27;4.00;;;;;;;;;;5034045;28;20262;-86
2021/11/08 15:15:13;;;;;;;8.67;3.40;;;;;;;;;;5033837;28;20543;-87
2021/11/08 15:18:01;;;;;;;9.87;4.00;;;;;;;;;;5035168;28;20702;-87
2021/11/08 15:20:47;;;;;;;8.37;3.30;;;;;;;;;;5033780;28;20579;-86
2021/11/08 15:23:37;;;;;;;14.90;4.17;;;;;;;;;;5033430;28;20196;-86
2021/11/08 15:26:22;;;;;;;13.17;3.93;;;;;;;;;;5034090;28;20199;-87
2021/11/08 15:29:12;;;;;;;9.93;4.33;;;;;;;;;;5034582;28;20195;-88
2021/11/08 15:31:58;;;;;;;13.43;4.50;;;;;;;;;;5034805;28;20187;-88
2021/11/08 15:34:44;;;;;;;8.07;3.50;;;;;;;;;;5034566;28;20196;-86
2021/11/08 15:37:33;;;;;;;8.33;4.23;;;;;;;;;;5034026;28;20671;-86
2021/11/08 15:40:19;;;;;;;8.17;3.70;;;;;;;;;;5034142;28;20541;-88
2021/11/08 15:43:04;;;;;;;10.17;3.73;;;;;;;;;;5034200;28;20211;-87
2021/11/08 15:45:51;;;;;;;12.07;4.23;;;;;;;;;;5033643;28;20180;-86
2021/11/08 15:48:39;;;;;;;10.97;4.20;;;;;;;;;;5035228;28;20199;-89
2021/11/08 15:51:25;;;;;;;10.87;3.87;;;;;;;;;;5034057;28;20223;-88
2021/11/08 15:54:11;;;;;;;12.90;4.30;;;;;;;;;;5034481;28;20183;-89
2021/11/08 15:57:00;;;;;;;14.23;5.20;;;;;;;;;;5032945;28;20193;-89
2021/11/08 15:59:45;;;;;;;21.87;8.80;;;;;;;;;;5032677;28;20286;-89
2021/11/08 16:02:36;;;;;;;21.73;9.10;;;;;;;;;;5032856;28;20632;-86
2021/11/08 16:05:21;;;;;;;24.13;8.20;;;;;;;;;;5032475;28;20743;-87
2021/11/08 16:08:06;;;;;;;16.30;6.50;;;;;;;;;;5033999;28;20202;-87
2021/11/08 16:10:51;;;;;;;17.60;6.67;;;;;;;;;;5033123;28;20667;-88
2021/11/08 16:13:37;;;;;;;16.37;7.00;;;;;;;;;;5033474;28;20195;-88
2021/11/08 16:16:22;;;;;;;13.50;5.93;;;;;;;;;;5029159;28;20211;-87
2021/11/08 16:19:08;;;;;;;8.47;5.40;;;;;;;;;;5033173;28;20457;-90
2021/11/08 16:21:53;;;;;;;12.90;7.43;;;;;;;;;;5028191;28;20215;-89
2021/11/08 16:24:38;;;;;;;10.93;5.93;;;;;;;;;;5027719;28;20191;-87
2021/11/08 16:27:23;;;;;;;13.90;5.57;;;;;;;;;;5031610;28;20314;-89
2021/11/08 16:30:09;;;;;;;13.53;5.97;;;;;;;;;;5032452;28;20207;-88
2021/11/08 16:32:57;;;;;;;13.67;5.60;;;;;;;;;;5030369;28;20550;-89
2021/11/08 16:35:44;;;;;;;12.50;5.30;;;;;;;;;;5032301;28;20196;-90
2021/11/08 16:38:30;;;;;;;10.43;4.50;;;;;;;;;;5033601;28;20195;-90
2021/11/08 16:41:16;;;;;;;24.63;8.63;;;;;;;;;;5030618;28;20207;-89
2021/11/08 16:44:01;;;;;;;26.80;10.40;;;;;;;;;;5032130;28;20707;-89
2021/11/08 16:46:50;;;;;;;28.73;10.27;;;;;;;;;;5032476;28;20266;-89
2021/11/08 16:49:35;;;;;;;35.00;14.33;;;;;;;;;;5031268;28;20563;-90
2021/11/08 16:52:20;;;;;;;31.27;12.73;;;;;;;;;;5031590;28;20226;-87
2021/11/08 16:55:06;;;;;;;36.43;13.83;;;;;;;;;;5026777;28;20199;-89
2021/11/08 16:57:52;;;;;;;34.47;14.47;;;;;;;;;;5026879;28;20195;-89
2021/11/08 17:00:38;;;;;;;37.73;13.80;;;;;;;;;;5031121;28;20553;-89
2021/11/08 17:03:25;;;;;;;30.70;12.67;;;;;;;;;;5032973;28;20273;-88
2021/11/08 17:06:12;;;;;;;25.07;11.90;;;;;;;;;;5032697;28;20188;-89
2021/11/08 17:08:59;;;;;;;25.20;10.77;;;;;;;;;;5033376;28;20551;-89
2021/11/08 17:14:49;;;;;;;29.67;11.50;;;;;;;;;;5033160;28;20262;-89
2021/11/08 17:17:34;;;;;;;24.07;10.63;;;;;;;;;;5032398;28;20275;-89
2021/11/08 17:20:21;;;;;;;25.80;10.23;;;;;;;;;;5032252;28;20799;-89
2021/11/08 17:23:06;;;;;;;19.93;9.67;;;;;;;;;;5032367;28;20207;-88
2021/11/08 17:25:51;;;;;;;20.50;8.77;;;;;;;;;;5031928;28;20191;-88
2021/11/08 17:28:36;;;;;;;14.60;8.00;;;;;;;;;;5032260;28;20191;-89
2021/11/08 17:31:21;;;;;;;13.83;7.57;;;;;;;;;;5036291;28;20287;-88
2021/11/08 17:34:07;;;;;;;16.37;6.67;;;;;;;;;;5036402;28;20183;-89
2021/11/08 17:36:54;;;;;;;16.17;6.37;;;;;;;;;;5036639;28;20191;-89
2021/11/08 17:39:39;;;;;;;14.40;6.57;;;;;;;;;;5035895;28;20399;-89
2021/11/08 17:42:24;;;;;;;12.17;6.50;;;;;;;;;;5035749;28;20333;-88
2021/11/08 17:45:10;;;;;;;13.20;7.03;;;;;;;;;;5035665;28;20219;-89
2021/11/08 17:47:57;;;;;;;17.37;7.10;;;;;;;;;;5035343;28;20191;-87
2021/11/08 17:50:45;;;;;;;17.63;8.50;;;;;;;;;;5034604;28;20226;-88
2021/11/08 17:53:31;;;;;;;12.83;7.77;;;;;;;;;;5034628;28;20235;-87